Terminal Aerodrome Forecast
Issued by NWS

Home | Current Version | Previous Version | Text Only | Print | Product List | Glossary On
Versions: 1 2 3 4 5 6 7 8 9 10 11 12 13 14 15 16 17
000
FTUS43 KGRR 221700 RRA
TAFJXN
TAF
KJXN 221746Z 2218/2318 21010G20KT P6SM SCT060
     FM230000 23010KT 6SM HZ VCTS BKN060CB
     FM230600 26011KT 4SM BR BKN050
     FM230800 32010G20KT P6SM SCT015 BKN035
     FM231500 35011G21KT P6SM BKN040=

USA.gov is the U.S. government's official web portal to all federal, state and local government web resources and services.